Time;durP1;ratioP1;P1;durP2;ratioP2;P2;SDS_P1;SDS_P2;PMS_P1;PMS_P2;Temp;Humidity;BMP_temperature;BMP_pressure;BME280_temperature;BME280_humidity;BME280_pressure;Samples;Min_cycle;Max_cycle;Signal;HPM_P1;HPM_P2
2021/12/22 00:01:07;;;;;;;14.80;7.10;;;;;;;-10.14;71.40;101945.95;105103;1285;60270;-83
2021/12/22 00:03:36;;;;;;;11.70;6.70;;;;;;;-10.19;71.50;101948.50;105102;1287;72627;-83
2021/12/22 00:06:05;;;;;;;13.00;7.00;;;;;;;-10.23;71.71;101948.70;105148;1283;70938;-84
2021/12/22 00:08:34;;;;;;;11.80;6.10;;;;;;;-10.29;72.04;101946.66;105283;1287;71478;-83
2021/12/22 00:11:03;;;;;;;13.60;6.30;;;;;;;-10.32;72.26;101945.89;105047;1286;72421;-84
2021/12/22 00:13:32;;;;;;;15.30;7.20;;;;;;;-10.36;72.13;101948.11;105467;1283;62327;-81
2021/12/22 00:16:04;;;;;;;19.20;8.20;;;;;;;-10.38;72.20;101947.20;106103;1286;60422;-77
2021/12/22 00:18:35;;;;;;;17.60;8.70;;;;;;;-10.36;73.35;101949.45;106636;1287;73218;-82
2021/12/22 00:21:04;;;;;;;18.90;8.90;;;;;;;-10.31;72.99;101953.52;105586;1284;70828;-83
2021/12/22 00:23:33;;;;;;;17.60;8.20;;;;;;;-10.26;72.80;101960.07;105729;1288;69960;-86
2021/12/22 00:26:02;;;;;;;19.20;7.90;;;;;;;-10.25;73.41;101965.52;105225;1287;72073;-81
2021/12/22 00:28:32;;;;;;;13.80;7.60;;;;;;;-10.23;73.29;101970.09;105138;1287;61476;-81
2021/12/22 00:31:10;;;;;;;20.20;8.60;;;;;;;-10.19;72.97;101973.77;105129;1287;61373;-81
2021/12/22 00:33:48;;;;;;;19.60;8.10;;;;;;;-10.22;73.16;101975.85;105180;1283;73903;-80
2021/12/22 00:36:22;;;;;;;16.40;8.50;;;;;;;-10.28;72.95;101977.37;104970;1285;73084;-79
2021/12/22 00:38:52;;;;;;;18.30;7.80;;;;;;;-10.36;73.54;101985.84;104968;1288;69890;-82
2021/12/22 00:41:21;;;;;;;15.20;7.70;;;;;;;-10.42;73.32;101984.15;105059;1284;74220;-81
2021/12/22 00:43:50;;;;;;;14.60;8.00;;;;;;;-10.45;72.58;101987.92;104794;1286;62668;-79
2021/12/22 00:46:19;;;;;;;16.20;7.90;;;;;;;-10.48;72.86;101989.70;105088;1287;59673;-76
2021/12/22 00:48:48;;;;;;;16.10;7.40;;;;;;;-10.47;73.35;101991.89;104825;1287;73620;-74
2021/12/22 00:51:17;;;;;;;15.20;8.50;;;;;;;-10.47;73.25;101994.93;104935;1286;71519;-80
2021/12/22 00:53:46;;;;;;;19.20;8.20;;;;;;;-10.45;73.92;101995.17;105011;1287;69101;-79
2021/12/22 00:56:15;;;;;;;16.00;8.70;;;;;;;-10.45;73.83;101997.70;104991;1287;73607;-81
2021/12/22 00:58:44;;;;;;;19.00;8.80;;;;;;;-10.41;73.68;101995.96;105092;1287;61288;-80
2021/12/22 01:01:12;;;;;;;19.90;9.40;;;;;;;-10.36;73.77;101993.77;104994;1289;61374;-77
2021/12/22 01:03:42;;;;;;;17.00;8.70;;;;;;;-10.28;74.06;101998.60;105208;1286;75178;-79
2021/12/22 01:06:13;;;;;;;23.00;8.80;;;;;;;-10.22;73.81;101999.10;104908;1285;71181;-79
2021/12/22 01:08:42;;;;;;;17.30;9.10;;;;;;;-10.24;73.14;101991.65;105043;1285;72489;-78
2021/12/22 01:11:11;;;;;;;15.70;7.80;;;;;;;-10.29;73.22;101993.99;104834;1287;73055;-78
2021/12/22 01:13:40;;;;;;;21.10;10.80;;;;;;;-10.37;73.54;101992.89;104898;1286;59830;-80
2021/12/22 01:16:09;;;;;;;26.10;12.60;;;;;;;-10.44;74.94;101991.83;104980;1283;59837;-79
2021/12/22 01:18:38;;;;;;;20.40;10.30;;;;;;;-10.48;75.05;101990.16;104877;1286;72313;-78
2021/12/22 01:27:05;;;;;;;15.10;8.20;;;;;;;-10.60;74.23;101979.68;104890;1287;72087;-87
2021/12/22 01:29:36;;;;;;;17.10;8.20;;;;;;;-10.59;74.50;101977.67;105250;1283;60503;-84
2021/12/22 01:32:09;;;;;;;17.00;8.40;;;;;;;-10.57;74.06;101979.42;105251;1287;60652;-86
2021/12/22 01:34:37;;;;;;;15.20;8.60;;;;;;;-10.57;73.87;101974.21;105215;1286;75446;-87
2021/12/22 01:37:06;;;;;;;19.50;8.60;;;;;;;-10.54;73.68;101976.83;105210;1285;72216;-84
2021/12/22 01:39:35;;;;;;;19.90;9.10;;;;;;;-10.55;73.57;101974.29;105346;1283;68747;-85
2021/12/22 01:42:05;;;;;;;18.20;8.90;;;;;;;-10.57;73.16;101971.33;104872;1285;71997;-85
2021/12/22 01:50:38;;;;;;;17.10;8.00;;;;;;;-10.84;73.07;101963.17;104912;1286;72435;-82
2021/12/22 01:53:35;;;;;;;17.20;7.70;;;;;;;-10.96;72.69;101964.45;104738;1288;70554;-82
2021/12/22 01:56:33;;;;;;;19.10;8.30;;;;;;;-11.07;74.06;101964.90;104871;1286;71713;-87
2021/12/22 01:59:06;;;;;;;16.70;10.00;;;;;;;-11.06;74.10;101962.06;105140;1286;71636;-87
2021/12/22 02:01:35;;;;;;;16.00;7.80;;;;;;;-11.04;74.62;101964.17;105035;1284;62304;-82
2021/12/22 02:04:06;;;;;;;15.30;8.30;;;;;;;-11.01;74.74;101962.07;104886;1284;60449;-85
2021/12/22 02:06:43;;;;;;;16.20;9.00;;;;;;;-10.97;74.59;101960.52;106656;1284;74264;-85
2021/12/22 02:09:47;;;;;;;13.80;8.10;;;;;;;-10.93;74.66;101953.59;104945;1283;71170;-83
2021/12/22 02:12:16;;;;;;;16.40;8.90;;;;;;;-10.87;75.10;101950.47;104925;1283;70359;-83
2021/12/22 02:14:45;;;;;;;15.70;7.70;;;;;;;-10.81;74.66;101951.52;104876;1287;72151;-88
2021/12/22 02:17:14;;;;;;;16.40;8.20;;;;;;;-10.74;74.33;101954.77;104765;1285;62699;-82
2021/12/22 02:19:47;;;;;;;15.10;8.50;;;;;;;-10.68;74.02;101956.66;104911;1286;61839;-84
2021/12/22 02:22:17;;;;;;;;;;;;;;;-10.66;73.62;101954.03;104939;1284;72916;-84
2021/12/22 02:24:58;;;;;;;17.50;9.30;;;;;;;-10.63;74.24;101954.48;104983;1286;71821;-82
2021/12/22 02:27:33;;;;;;;17.20;8.60;;;;;;;-10.61;73.96;101952.48;104954;1284;71624;-81
2021/12/22 02:30:04;;;;;;;18.60;9.10;;;;;;;-10.64;73.07;101948.54;104807;1284;72810;-84
2021/12/22 02:33:06;;;;;;;18.10;8.30;;;;;;;-10.69;74.12;101948.55;104955;1287;60580;-86
2021/12/22 02:38:43;;;;;;;17.50;8.50;;;;;;;-10.79;74.29;101943.65;104680;1287;72700;-86
2021/12/22 02:41:14;;;;;;;13.90;7.30;;;;;;;-10.78;75.08;101944.38;104846;1286;73078;-86
2021/12/22 02:43:47;;;;;;;23.50;12.00;;;;;;;-10.76;74.97;101950.86;104798;1281;68730;-84
2021/12/22 02:46:19;;;;;;;19.10;9.30;;;;;;;-10.72;74.59;101949.95;104810;1286;73212;-86
2021/12/22 02:48:48;;;;;;;17.30;8.50;;;;;;;-10.71;74.46;101948.99;105404;1286;62416;-86
2021/12/22 02:51:18;;;;;;;15.30;7.30;;;;;;;-10.70;74.64;101948.68;104849;1284;62522;-85
2021/12/22 02:56:41;;;;;;;16.40;8.20;;;;;;;-10.73;74.75;101948.40;104674;1287;71195;-86
2021/12/22 03:02:10;;;;;;;16.80;7.70;;;;;;;-10.67;74.33;101944.20;104833;1286;72283;-87
2021/12/22 03:04:51;;;;;;;16.30;7.90;;;;;;;-10.70;74.34;101946.84;104816;1283;60975;-85
2021/12/22 03:07:24;;;;;;;16.70;7.30;;;;;;;-10.69;74.27;101947.02;104899;1283;59860;-86
2021/12/22 03:10:06;;;;;;;19.90;9.60;;;;;;;-10.74;74.18;101949.40;104887;1286;74202;-86
2021/12/22 03:12:36;;;;;;;13.80;7.80;;;;;;;-10.77;74.38;101946.95;104997;1286;72180;-84
2021/12/22 03:15:07;;;;;;;16.70;8.30;;;;;;;-10.75;74.40;101952.05;105117;1286;69739;-81
2021/12/22 03:17:40;;;;;;;16.60;9.00;;;;;;;-10.69;74.39;101952.92;105185;1286;72702;-80
2021/12/22 03:20:13;;;;;;;15.00;7.30;;;;;;;-10.62;74.53;101961.23;105000;1286;61896;-75
2021/12/22 03:22:43;;;;;;;12.80;8.60;;;;;;;-10.54;74.36;101960.16;104702;1287;61037;-78
2021/12/22 03:25:17;;;;;;;17.10;9.20;;;;;;;-10.49;74.56;101959.49;104706;1286;72516;-77
2021/12/22 03:27:50;;;;;;;15.50;8.70;;;;;;;-10.40;74.43;101955.58;104708;1287;70436;-80
2021/12/22 03:30:23;;;;;;;;;;;;;;;-10.34;74.33;101955.61;104623;1288;69788;-78
2021/12/22 03:32:52;;;;;;;18.00;9.10;;;;;;;-10.29;73.93;101955.77;104506;1287;73220;-78
2021/12/22 03:35:22;;;;;;;17.40;8.90;;;;;;;-10.28;73.96;101954.27;104523;1287;59849;-79
2021/12/22 03:37:59;;;;;;;21.30;10.60;;;;;;;-10.30;73.92;101952.36;104778;1288;61205;-80
2021/12/22 03:40:28;;;;;;;30.40;17.80;;;;;;;-10.35;74.35;101955.41;104611;1287;74186;-78
2021/12/22 03:42:57;;;;;;;18.80;9.70;;;;;;;-10.34;76.34;101956.11;104364;1285;73950;-77
2021/12/22 03:45:25;;;;;;;16.70;8.70;;;;;;;-10.33;74.92;101955.30;104652;1288;69116;-80
2021/12/22 03:47:55;;;;;;;20.20;9.30;;;;;;;-10.32;74.71;101957.70;104721;1286;74894;-79
2021/12/22 03:50:23;;;;;;;20.90;10.50;;;;;;;-10.31;74.94;101950.82;104685;1287;61901;-79
2021/12/22 03:52:52;;;;;;;29.10;13.30;;;;;;;-10.25;74.94;101949.48;104737;1284;61189;-79
2021/12/22 03:55:21;;;;;;;29.50;13.70;;;;;;;-10.20;74.72;101948.96;104514;1286;75059;-78
2021/12/22 03:57:50;;;;;;;22.20;11.00;;;;;;;-10.16;75.36;101946.23;104772;1288;69744;-78
2021/12/22 04:00:19;;;;;;;20.30;11.70;;;;;;;-10.10;74.51;101949.10;104789;1288;68806;-81
2021/12/22 04:02:48;;;;;;;25.00;12.30;;;;;;;-10.09;74.38;101950.65;104692;1288;72361;-81
2021/12/22 04:05:18;;;;;;;24.30;12.00;;;;;;;-10.13;74.08;101948.66;104906;1287;59970;-80
2021/12/22 04:07:47;;;;;;;29.10;14.00;;;;;;;-10.18;74.84;101951.03;104776;1287;58934;-79
2021/12/22 04:10:20;;;;;;;255.70;73.80;;;;;;;-10.20;75.56;101955.89;104977;1287;72885;-78
2021/12/22 04:12:53;;;;;;;143.90;41.20;;;;;;;-10.24;75.43;101955.40;104907;1283;73369;-77
2021/12/22 04:15:24;;;;;;;132.50;39.50;;;;;;;-10.29;75.51;101954.42;104639;1287;70275;-82
2021/12/22 04:17:53;;;;;;;28.10;11.20;;;;;;;-10.31;75.26;101959.07;104832;1285;74825;-79
2021/12/22 04:20:22;;;;;;;20.40;10.90;;;;;;;-10.32;75.37;101957.50;105042;1285;61169;-79
2021/12/22 04:22:51;;;;;;;18.30;9.80;;;;;;;-10.31;75.36;101963.45;104816;1288;60597;-79
2021/12/22 04:25:21;;;;;;;20.10;10.70;;;;;;;-10.30;76.37;101962.48;104860;1287;75414;-80
2021/12/22 04:27:52;;;;;;;37.30;15.10;;;;;;;-10.31;75.48;101969.35;104804;1288;71954;-80
2021/12/22 04:30:22;;;;;;;27.50;14.20;;;;;;;-10.28;75.72;101966.09;104597;1288;70487;-80
2021/12/22 04:32:51;;;;;;;29.80;15.20;;;;;;;-10.15;82.34;101965.13;104876;1287;74628;-80
2021/12/22 04:35:20;;;;;;;29.70;15.10;;;;;;;-10.19;77.30;101970.55;104869;1288;59439;-78
2021/12/22 04:37:49;;;;;;;23.20;10.50;;;;;;;-10.19;76.05;101971.58;104792;1288;60078;-81
2021/12/22 04:40:18;;;;;;;54.30;29.50;;;;;;;-10.19;75.28;101974.09;104599;1287;73799;-79
2021/12/22 04:42:47;;;;;;;21.40;10.90;;;;;;;-10.24;74.90;101977.33;105233;1283;70744;-79
2021/12/22 04:45:16;;;;;;;17.10;9.40;;;;;;;-10.31;74.85;101981.15;104896;1287;69952;-79
2021/12/22 04:47:45;;;;;;;16.10;8.60;;;;;;;-10.34;74.34;101981.54;104814;1287;74098;-80
2021/12/22 04:50:17;;;;;;;16.10;8.60;;;;;;;-10.35;74.53;101987.24;104746;1288;60871;-81
2021/12/22 04:56:10;;;;;;;19.60;8.50;;;;;;;-10.42;75.82;101985.52;105079;1287;72105;-79
2021/12/22 04:58:39;;;;;;;19.30;8.90;;;;;;;-10.42;75.46;101985.34;105131;1288;70009;-80
2021/12/22 05:01:10;;;;;;;16.10;8.70;;;;;;;-10.39;75.29;101983.23;105439;1285;69982;-78
2021/12/22 05:03:42;;;;;;;16.20;7.90;;;;;;;-10.36;75.21;101990.07;104997;1287;72331;-84
2021/12/22 05:06:11;;;;;;;19.30;9.80;;;;;;;-10.35;75.36;101987.06;104748;1287;60658;-80
2021/12/22 05:08:40;;;;;;;18.60;9.80;;;;;;;-10.34;74.99;101983.90;104768;1285;59030;-78
2021/12/22 05:11:09;;;;;;;21.80;11.90;;;;;;;-10.35;74.97;101984.36;104735;1287;74247;-80
2021/12/22 05:13:41;;;;;;;24.70;13.20;;;;;;;-10.34;75.86;101983.90;104663;1288;72397;-79
2021/12/22 05:16:17;;;;;;;20.80;12.10;;;;;;;-10.40;75.54;101983.36;104793;1286;68754;-78
2021/12/22 05:19:11;;;;;;;22.40;12.90;;;;;;;-10.45;76.22;101987.42;104896;1288;70338;-80
2021/12/22 05:21:42;;;;;;;18.90;10.90;;;;;;;-10.48;76.00;101987.66;104836;1286;61397;-80
2021/12/22 05:24:11;;;;;;;19.10;9.90;;;;;;;-10.49;75.22;101985.77;104684;1288;60369;-81
2021/12/22 05:26:40;;;;;;;17.10;8.50;;;;;;;-10.44;74.79;101992.34;104890;1285;75397;-79
2021/12/22 05:29:09;;;;;;;24.20;10.30;;;;;;;-10.39;75.45;101993.16;104788;1287;70856;-82
2021/12/22 05:31:38;;;;;;;18.00;9.20;;;;;;;-10.36;75.44;101995.98;104841;1283;68364;-80
2021/12/22 05:34:07;;;;;;;22.90;9.60;;;;;;;-10.32;75.32;101995.09;104787;1285;70166;-81
2021/12/22 05:36:37;;;;;;;19.10;10.00;;;;;;;-10.25;75.61;101993.96;104520;1288;61528;-71
2021/12/22 05:39:05;;;;;;;26.10;10.00;;;;;;;-10.14;75.85;101993.47;104737;1285;62161;-73
2021/12/22 05:41:34;;;;;;;21.10;10.10;;;;;;;-10.01;75.67;101992.52;104654;1288;73718;-73
2021/12/22 05:44:04;;;;;;;20.40;8.10;;;;;;;-9.92;74.77;101998.73;104684;1283;70124;-72
2021/12/22 05:46:33;;;;;;;27.20;12.10;;;;;;;-9.82;74.76;101998.21;104800;1288;69592;-73
2021/12/22 05:49:02;;;;;;;16.60;10.40;;;;;;;-9.78;74.55;101995.95;104631;1288;72394;-73
2021/12/22 05:51:33;;;;;;;27.10;13.70;;;;;;;-9.74;74.27;102000.79;104518;1288;59617;-72
2021/12/22 05:54:02;;;;;;;28.40;13.30;;;;;;;-9.73;73.98;102005.72;104722;1286;59516;-73
2021/12/22 05:56:32;;;;;;;22.20;9.80;;;;;;;-9.75;73.55;102006.33;104738;1287;72824;-72
2021/12/22 05:59:01;;;;;;;17.10;8.00;;;;;;;-9.84;73.26;102006.55;104681;1287;73172;-71
2021/12/22 06:01:30;;;;;;;22.30;10.60;;;;;;;-9.85;73.75;102002.83;104744;1285;69022;-72
2021/12/22 06:04:02;;;;;;;20.00;10.10;;;;;;;-9.81;74.03;102003.95;106052;1285;74564;-73
2021/12/22 06:06:32;;;;;;;21.00;10.80;;;;;;;-9.77;74.18;102009.30;104529;1288;63506;-73
2021/12/22 06:09:04;;;;;;;25.10;11.50;;;;;;;-9.66;75.45;102006.95;106416;1288;60224;-73
2021/12/22 06:11:34;;;;;;;20.40;9.60;;;;;;;-9.58;74.89;102011.74;104647;1288;74525;-72
2021/12/22 06:14:03;;;;;;;21.00;10.30;;;;;;;-9.50;74.39;102016.20;104788;1285;70887;-71
2021/12/22 06:16:32;;;;;;;20.60;10.30;;;;;;;-9.42;74.41;102018.30;104556;1288;69361;-72
2021/12/22 06:19:04;;;;;;;26.50;12.00;;;;;;;-9.30;74.31;102015.30;104564;1288;72348;-76
2021/12/22 06:21:33;;;;;;;17.40;8.60;;;;;;;-9.16;74.36;102023.97;104560;1287;59891;-75
2021/12/22 06:24:02;;;;;;;19.10;9.70;;;;;;;-9.04;73.40;102021.62;104477;1288;60576;-80
2021/12/22 06:26:32;;;;;;;19.30;10.30;;;;;;;-8.98;73.46;102020.80;104499;1288;74747;-76
2021/12/22 06:29:01;;;;;;;25.00;12.40;;;;;;;-8.86;72.90;102020.61;104446;1285;73285;-75
2021/12/22 06:31:30;;;;;;;22.60;11.50;;;;;;;-8.65;71.36;102018.14;104578;1287;69423;-76
2021/12/22 06:33:59;;;;;;;24.10;12.10;;;;;;;-8.48;71.08;102019.61;104051;1285;512521;-77
2021/12/22 06:36:28;;;;;;;23.40;13.30;;;;;;;-8.42;70.61;102022.31;104439;1287;59658;-72
2021/12/22 06:38:57;;;;;;;22.10;10.60;;;;;;;-8.40;71.24;102024.05;104487;1287;59718;-75
2021/12/22 06:41:26;;;;;;;20.30;10.80;;;;;;;-8.43;70.87;102028.86;104463;1286;70618;-75
2021/12/22 06:43:56;;;;;;;21.20;10.90;;;;;;;-8.45;70.89;102027.95;104458;1288;71461;-77
2021/12/22 06:46:25;;;;;;;27.80;12.00;;;;;;;-8.44;71.30;102028.52;104550;1288;68192;-78
2021/12/22 06:48:54;;;;;;;25.30;11.00;;;;;;;-8.37;71.49;102030.89;104381;1288;71101;-75
2021/12/22 06:51:23;;;;;;;19.60;10.40;;;;;;;-8.22;71.75;102032.94;104476;1288;59923;-77
2021/12/22 06:53:52;;;;;;;23.00;10.80;;;;;;;-8.04;70.62;102036.79;104373;1287;60060;-77
2021/12/22 06:56:21;;;;;;;21.50;11.40;;;;;;;-7.81;69.88;102034.96;104398;1285;74892;-74
2021/12/22 06:58:49;;;;;;;22.40;11.70;;;;;;;-7.59;68.79;102038.36;104484;1285;72941;-75
2021/12/22 07:01:20;;;;;;;22.70;10.30;;;;;;;-7.44;67.28;102038.70;104446;1286;67850;-75
2021/12/22 07:03:50;;;;;;;19.90;10.60;;;;;;;-7.36;68.97;102045.33;104402;1288;74976;-77
2021/12/22 07:06:19;;;;;;;19.10;11.10;;;;;;;-7.32;66.81;102039.64;104415;1285;60375;-75
2021/12/22 07:08:47;;;;;;;17.60;10.00;;;;;;;-7.28;67.01;102043.80;104471;1288;60951;-75
2021/12/22 07:11:16;;;;;;;20.30;11.00;;;;;;;-7.22;67.70;102051.04;104518;1287;71040;-75
2021/12/22 07:13:45;;;;;;;19.90;11.20;;;;;;;-7.19;67.30;102049.76;104471;1286;70650;-75
2021/12/22 07:16:14;;;;;;;15.20;7.80;;;;;;;-7.20;66.11;102049.05;104440;1288;71934;-75
2021/12/22 07:18:44;;;;;;;21.40;10.50;;;;;;;-7.19;65.71;102051.95;104311;1288;74060;-76
2021/12/22 07:21:12;;;;;;;17.10;9.80;;;;;;;-7.16;67.51;102055.57;104625;1288;61741;-74
2021/12/22 07:23:41;;;;;;;27.10;11.20;;;;;;;-7.13;66.87;102052.42;104703;1285;60360;-76
2021/12/22 07:26:13;;;;;;;23.60;13.50;;;;;;;-7.06;66.17;102057.15;104749;1288;74928;-75
2021/12/22 07:28:45;;;;;;;19.80;11.10;;;;;;;-6.97;66.36;102054.30;105260;1285;70933;-72
2021/12/22 07:31:15;;;;;;;23.70;12.40;;;;;;;-6.92;66.50;102056.09;104509;1288;68858;-76
2021/12/22 07:33:57;;;;;;;22.30;11.80;;;;;;;-6.83;67.16;102059.48;104718;1285;71988;-76
2021/12/22 07:36:25;;;;;;;21.10;10.30;;;;;;;-6.64;67.33;102062.41;104400;1288;61078;-73
2021/12/22 07:38:59;;;;;;;32.50;14.10;;;;;;;-6.50;66.76;102062.52;104744;1288;59498;-72
2021/12/22 07:41:29;;;;;;;26.20;12.30;;;;;;;-6.34;66.64;102060.95;104720;1287;72658;-75
2021/12/22 07:43:57;;;;;;;34.90;14.40;;;;;;;-6.23;66.81;102062.35;104760;1286;72396;-78
2021/12/22 07:46:26;;;;;;;32.40;14.20;;;;;;;-6.17;65.03;102060.77;104574;1288;71425;-75
2021/12/22 07:48:55;;;;;;;24.20;12.10;;;;;;;-6.02;64.44;102069.51;105317;1285;74346;-77
2021/12/22 07:51:24;;;;;;;21.50;11.60;;;;;;;-5.91;64.56;102073.92;104641;1288;61215;-78
2021/12/22 07:53:53;;;;;;;26.50;12.30;;;;;;;-5.88;62.01;102069.20;104569;1288;59632;-78
2021/12/22 07:56:22;;;;;;;27.30;13.70;;;;;;;-5.81;63.07;102071.36;104670;1287;71745;-76
2021/12/22 07:58:53;;;;;;;27.80;12.70;;;;;;;-5.76;62.34;102068.56;104644;1288;71398;-78
2021/12/22 08:01:22;;;;;;;12.80;7.20;;;;;;;-5.69;62.39;102069.02;104629;1287;70754;-74
2021/12/22 08:03:51;;;;;;;17.60;8.80;;;;;;;-5.64;61.05;102063.14;104639;1288;75044;-73
2021/12/22 08:06:20;;;;;;;19.20;11.30;;;;;;;-5.55;62.18;102066.17;104608;1287;62297;-72
2021/12/22 08:08:49;;;;;;;15.80;6.70;;;;;;;-5.43;62.43;102068.04;104567;1285;60934;-73
2021/12/22 08:11:18;;;;;;;14.10;5.90;;;;;;;-5.28;61.35;102070.81;104558;1287;73046;-74
2021/12/22 08:13:47;;;;;;;25.40;10.80;;;;;;;-5.17;61.67;102068.61;104593;1285;70286;-74
2021/12/22 08:16:16;;;;;;;18.00;9.70;;;;;;;-5.05;61.69;102074.37;104609;1287;69710;-75
2021/12/22 08:18:45;;;;;;;17.90;9.40;;;;;;;-4.93;60.99;102076.75;104582;1285;75507;-78
2021/12/22 08:21:14;;;;;;;23.70;10.50;;;;;;;-4.84;58.66;102082.98;104661;1288;62204;-75
2021/12/22 08:23:42;;;;;;;24.50;10.50;;;;;;;-4.69;60.19;102085.21;104722;1287;60510;-77
2021/12/22 08:26:12;;;;;;;14.50;7.10;;;;;;;-4.57;59.92;102088.60;104624;1287;73407;-75
2021/12/22 08:28:41;;;;;;;17.60;9.40;;;;;;;-4.42;60.87;102091.98;104644;1286;71407;-77
2021/12/22 08:31:11;;;;;;;13.20;6.80;;;;;;;-4.28;60.10;102092.98;104759;1287;69777;-77
2021/12/22 08:33:44;;;;;;;17.30;9.20;;;;;;;-4.19;57.89;102093.77;104744;1285;71627;-74
2021/12/22 08:39:04;;;;;;;17.40;8.60;;;;;;;-4.03;57.98;102090.36;104768;1288;60692;-78
2021/12/22 08:41:35;;;;;;;14.40;7.20;;;;;;;-3.87;57.72;102094.42;104401;1288;75103;-74
2021/12/22 08:44:09;;;;;;;15.70;9.20;;;;;;;-3.87;55.85;102096.30;104706;1288;71807;-78
2021/12/22 08:46:42;;;;;;;14.70;8.40;;;;;;;-3.86;54.70;102090.02;104832;1288;70688;-78
2021/12/22 08:49:10;;;;;;;14.40;7.60;;;;;;;-3.93;53.89;102085.35;104574;1287;74371;-77
2021/12/22 08:51:39;;;;;;;13.80;6.50;;;;;;;-3.93;54.59;102090.96;104682;1287;62182;-76
2021/12/22 08:54:08;;;;;;;10.00;5.20;;;;;;;-3.94;54.01;102086.87;104678;1288;60548;-73
2021/12/22 08:56:37;;;;;;;14.80;7.90;;;;;;;-3.91;55.35;102084.17;104590;1285;72369;-76
2021/12/22 08:59:07;;;;;;;14.90;8.10;;;;;;;-3.88;55.03;102090.67;104650;1288;70784;-73
2021/12/22 09:01:37;;;;;;;19.20;10.00;;;;;;;-3.82;55.40;102090.38;104510;1286;69403;-77
2021/12/22 09:04:09;;;;;;;16.10;8.40;;;;;;;-3.81;54.53;102086.98;104786;1285;72108;-76
2021/12/22 09:06:38;;;;;;;14.10;8.60;;;;;;;-3.72;54.65;102086.21;104747;1287;61429;-76
2021/12/22 09:09:07;;;;;;;14.90;7.60;;;;;;;-3.69;53.53;102081.13;104851;1287;61852;-72
2021/12/22 09:11:38;;;;;;;20.70;9.10;;;;;;;-3.63;53.62;102079.65;104885;1283;72440;-76
2021/12/22 09:14:09;;;;;;;18.50;8.80;;;;;;;-3.56;54.49;102078.85;104792;1285;71858;-74
2021/12/22 09:16:41;;;;;;;13.60;6.70;;;;;;;-3.44;53.80;102075.36;104782;1285;70048;-73
2021/12/22 09:19:11;;;;;;;19.00;8.80;;;;;;;-3.28;52.56;102071.05;104630;1288;75633;-72
2021/12/22 09:21:40;;;;;;;15.90;9.00;;;;;;;-3.30;53.75;102072.73;104750;1287;61968;-75
2021/12/22 09:24:08;;;;;;;17.80;8.90;;;;;;;-3.25;53.59;102071.73;104799;1287;61064;-73
2021/12/22 09:26:37;;;;;;;15.70;8.40;;;;;;;-3.21;54.42;102067.84;104500;1288;73610;-74
2021/12/22 09:29:06;;;;;;;15.70;7.60;;;;;;;-3.16;54.95;102066.86;104623;1287;70039;-76
2021/12/22 09:31:36;;;;;;;16.90;9.40;;;;;;;-3.14;54.71;102070.95;104437;1287;68622;-75
2021/12/22 09:34:07;;;;;;;16.70;8.20;;;;;;;-3.09;55.74;102066.05;104464;1286;72776;-72
2021/12/22 09:36:36;;;;;;;16.40;8.20;;;;;;;-3.12;54.97;102074.89;104247;1288;59604;-76
2021/12/22 09:39:05;;;;;;;16.40;9.30;;;;;;;-3.16;55.10;102078.95;104333;1288;59760;-74
2021/12/22 09:41:35;;;;;;;17.10;8.00;;;;;;;-3.26;54.82;102083.14;104366;1287;74869;-76
2021/12/22 09:44:05;;;;;;;12.60;7.60;;;;;;;-3.26;54.61;102080.24;104294;1288;73066;-75
2021/12/22 09:46:37;;;;;;;14.80;7.10;;;;;;;-3.32;55.12;102079.70;104386;1288;70403;-74
2021/12/22 09:49:45;;;;;;;15.50;7.50;;;;;;;-3.20;55.55;102081.99;104500;1287;71103;-79
2021/12/22 09:52:17;;;;;;;16.30;7.60;;;;;;;-3.13;54.85;102082.38;104532;1286;61411;-79
2021/12/22 09:54:49;;;;;;;14.70;7.40;;;;;;;-3.26;54.89;102080.77;104302;1286;59737;-77
2021/12/22 09:57:19;;;;;;;14.40;6.90;;;;;;;-3.33;55.56;102083.27;104569;1287;74471;-84
2021/12/22 09:59:49;;;;;;;11.70;6.20;;;;;;;-3.29;55.42;102075.46;104658;1284;72202;-85
2021/12/22 10:02:20;;;;;;;10.80;5.90;;;;;;;-3.32;56.64;102084.14;104666;1283;68649;-83
2021/12/22 10:04:49;;;;;;;12.40;6.20;;;;;;;-3.35;56.92;102084.80;104527;1286;74056;-81
2021/12/22 10:07:25;;;;;;;11.60;5.70;;;;;;;-3.41;56.54;102083.73;104622;1283;60182;-81
2021/12/22 10:10:02;;;;;;;12.20;6.40;;;;;;;-3.38;57.07;102082.91;104598;1287;60195;-83
2021/12/22 10:12:31;;;;;;;14.60;7.10;;;;;;;-3.38;57.77;102079.48;104406;1286;72835;-75
2021/12/22 10:15:03;;;;;;;10.80;6.00;;;;;;;-3.24;57.95;102078.73;104341;1285;71655;-77
2021/12/22 10:17:43;;;;;;;10.80;5.70;;;;;;;-3.23;58.51;102089.31;104478;1286;69994;-81
2021/12/22 10:20:20;;;;;;;15.50;6.30;;;;;;;-3.21;58.71;102087.79;104543;1283;72046;-79
2021/12/22 10:22:50;;;;;;;11.00;6.50;;;;;;;-3.19;59.51;102097.17;104508;1285;60865;-80
2021/12/22 10:25:25;;;;;;;10.20;5.50;;;;;;;-3.10;59.46;102086.32;104589;1283;62254;-77
2021/12/22 10:28:07;;;;;;;12.30;6.50;;;;;;;-3.12;59.79;102083.76;104641;1285;74378;-80
2021/12/22 10:30:40;;;;;;;12.80;5.90;;;;;;;-3.03;59.83;102074.09;104597;1285;71701;-79
2021/12/22 10:33:17;;;;;;;11.40;6.00;;;;;;;-2.95;59.89;102068.50;104459;1287;72072;-82
2021/12/22 10:35:49;;;;;;;14.80;7.20;;;;;;;-2.96;60.14;102067.82;104560;1283;74197;-80
2021/12/22 10:38:29;;;;;;;12.30;6.70;;;;;;;-2.91;60.30;102070.40;104537;1287;61851;-79
2021/12/22 10:41:10;;;;;;;11.60;6.00;;;;;;;-2.93;60.00;102062.71;104563;1288;60431;-76
2021/12/22 10:43:46;;;;;;;13.90;7.70;;;;;;;-2.77;59.87;102066.55;104664;1287;75481;-81
2021/12/22 10:46:31;;;;;;;16.70;8.40;;;;;;;-2.75;60.04;102072.02;104402;1286;71081;-82
2021/12/22 10:49:20;;;;;;;14.50;6.70;;;;;;;-2.64;59.92;102062.67;104551;1285;68828;-78
2021/12/22 10:52:01;;;;;;;11.20;6.20;;;;;;;-2.52;59.63;102064.08;104778;1285;75082;-81
2021/12/22 10:54:36;;;;;;;16.20;7.30;;;;;;;-2.44;59.39;102065.64;104643;1285;60750;-75
2021/12/22 10:57:10;;;;;;;15.20;7.80;;;;;;;-2.32;59.20;102063.97;104573;1284;61707;-82
2021/12/22 10:59:49;;;;;;;13.20;7.20;;;;;;;-2.36;58.99;102055.42;104453;1288;74038;-81
2021/12/22 11:02:25;;;;;;;15.10;8.40;;;;;;;-2.41;59.61;102049.44;104765;1285;72254;-72
2021/12/22 11:04:55;;;;;;;11.10;6.60;;;;;;;-2.44;59.93;102056.92;106004;1289;68047;-74
2021/12/22 11:07:28;;;;;;;14.40;8.00;;;;;;;-2.50;59.65;102058.13;104554;1285;72415;-78
2021/12/22 11:09:57;;;;;;;16.70;8.10;;;;;;;-2.59;59.95;102055.35;104531;1287;61418;-75
2021/12/22 11:12:36;;;;;;;16.30;8.70;;;;;;;-2.62;60.38;102058.93;104715;1283;62730;-75
2021/12/22 11:15:07;;;;;;;16.30;8.00;;;;;;;-2.60;61.40;102066.77;104665;1287;72389;-78
2021/12/22 11:17:39;;;;;;;19.90;8.50;;;;;;;-2.72;61.40;102069.46;104419;1288;70251;-76
2021/12/22 11:20:09;;;;;;;18.40;10.00;;;;;;;-2.71;61.62;102065.73;104484;1285;68811;-74
2021/12/22 11:25:25;;;;;;;20.80;9.20;;;;;;;-2.54;60.90;102058.27;104967;1285;59895;-79
2021/12/22 11:27:54;;;;;;;16.10;7.60;;;;;;;-2.50;60.70;102055.90;104654;1288;63186;-79
2021/12/22 11:30:28;;;;;;;12.60;6.90;;;;;;;-2.37;59.58;102056.61;104612;1286;75057;-76
2021/12/22 11:32:59;;;;;;;18.10;7.40;;;;;;;-2.31;58.87;102060.73;104490;1288;72593;-76
2021/12/22 11:35:29;;;;;;;8.10;4.40;;;;;;;-2.12;58.78;102058.88;104358;1288;70690;-75
2021/12/22 11:37:58;;;;;;;16.00;7.20;;;;;;;-1.93;57.72;102064.71;104248;1287;71499;-78
2021/12/22 11:40:27;;;;;;;12.90;7.10;;;;;;;-1.84;57.06;102054.14;104493;1283;61021;-79
2021/12/22 11:42:56;;;;;;;19.50;9.50;;;;;;;-1.90;56.18;102058.40;104519;1287;60995;-80
2021/12/22 11:45:26;;;;;;;14.20;7.90;;;;;;;-2.09;56.94;102065.20;104226;1288;72789;-81
2021/12/22 11:47:57;;;;;;;18.20;8.20;;;;;;;-2.09;56.92;102059.73;104644;1288;71637;-76
2021/12/22 11:50:29;;;;;;;15.20;7.80;;;;;;;-2.26;56.34;102066.88;104667;1288;70669;-75
2021/12/22 11:53:03;;;;;;;12.80;6.50;;;;;;;-2.40;57.01;102064.45;104705;1285;72610;-75